Time;durP1;ratioP1;P1;durP2;ratioP2;P2;SDS_P1;SDS_P2;PMS_P1;PMS_P2;Temp;Humidity;BMP_temperature;BMP_pressure;BME280_temperature;BME280_humidity;BME280_pressure;Samples;Min_cycle;Max_cycle;Signal;HPM_P1;HPM_P2
2022/11/16 00:01:34;;;;;;;7.20;4.70;;;;;;;;;;109022;1253;22537;-28
2022/11/16 00:04:11;;;;;;;6.60;4.50;;;;;;;;;;109052;1261;22515;-28
2022/11/16 00:06:45;;;;;;;7.30;4.80;;;;;;;;;;109039;1262;22595;-28
2022/11/16 00:09:25;;;;;;;7.80;5.40;;;;;;;;;;108971;1262;22551;-28
2022/11/16 00:12:00;;;;;;;7.20;4.90;;;;;;;;;;108957;1260;22551;-28
2022/11/16 00:14:36;;;;;;;7.50;5.00;;;;;;;;;;108952;1262;22663;-28
2022/11/16 00:17:08;;;;;;;8.20;4.70;;;;;;;;;;108953;1261;22543;-27
2022/11/16 00:19:41;;;;;;;7.80;5.00;;;;;;;;;;109064;1260;22532;-28
2022/11/16 00:22:14;;;;;;;6.80;4.70;;;;;;;;;;109025;1262;22537;-27
2022/11/16 00:24:46;;;;;;;7.60;5.30;;;;;;;;;;109025;1263;22587;-28
2022/11/16 00:27:19;;;;;;;7.90;5.10;;;;;;;;;;108980;1257;22582;-28
2022/11/16 00:29:51;;;;;;;7.30;4.70;;;;;;;;;;108948;1262;22717;-28
2022/11/16 00:32:24;;;;;;;7.30;4.70;;;;;;;;;;108937;1260;22683;-28
2022/11/16 00:34:56;;;;;;;7.30;4.90;;;;;;;;;;108961;1256;22570;-28
2022/11/16 00:37:29;;;;;;;7.30;4.60;;;;;;;;;;108916;1260;22514;-27
2022/11/16 00:40:01;;;;;;;7.50;5.20;;;;;;;;;;109039;1263;22546;-28
2022/11/16 00:42:36;;;;;;;7.60;4.90;;;;;;;;;;109035;1260;22531;-28
2022/11/16 00:45:11;;;;;;;7.00;4.70;;;;;;;;;;109072;1259;22510;-28
2022/11/16 00:47:43;;;;;;;8.10;4.60;;;;;;;;;;109133;1260;22560;-30
2022/11/16 00:50:17;;;;;;;7.20;5.00;;;;;;;;;;109209;1253;22491;-30
2022/11/16 00:52:49;;;;;;;7.40;5.00;;;;;;;;;;108898;1261;408056;-30
2022/11/16 00:55:22;;;;;;;7.10;4.60;;;;;;;;;;109199;1260;22537;-30
2022/11/16 00:57:56;;;;;;;7.20;4.60;;;;;;;;;;109054;1260;22544;-30
2022/11/16 01:00:29;;;;;;;7.10;4.70;;;;;;;;;;109195;1258;22612;-30
2022/11/16 01:03:02;;;;;;;7.40;4.80;;;;;;;;;;109259;1260;22523;-30
2022/11/16 01:05:37;;;;;;;7.50;4.50;;;;;;;;;;109191;1259;22537;-30
2022/11/16 01:08:12;;;;;;;7.00;4.60;;;;;;;;;;109186;1260;22524;-30
2022/11/16 01:10:45;;;;;;;7.40;4.80;;;;;;;;;;109195;1263;22563;-30
2022/11/16 01:13:20;;;;;;;6.80;4.30;;;;;;;;;;109191;1253;22541;-31
2022/11/16 01:15:53;;;;;;;7.10;4.30;;;;;;;;;;109226;1257;22597;-30
2022/11/16 01:18:25;;;;;;;6.80;4.70;;;;;;;;;;109160;1260;22560;-30
2022/11/16 01:20:58;;;;;;;7.40;4.40;;;;;;;;;;109151;1260;22985;-30
2022/11/16 01:23:34;;;;;;;6.70;4.50;;;;;;;;;;109136;1260;22533;-30
2022/11/16 01:26:09;;;;;;;7.00;4.70;;;;;;;;;;109179;1259;22511;-30
2022/11/16 01:28:42;;;;;;;6.60;4.40;;;;;;;;;;109133;1253;22670;-30
2022/11/16 01:31:14;;;;;;;7.10;4.50;;;;;;;;;;109148;1260;22844;-30
2022/11/16 01:33:47;;;;;;;6.80;4.60;;;;;;;;;;109203;1262;22707;-30
2022/11/16 01:36:19;;;;;;;7.10;4.60;;;;;;;;;;109163;1260;25303;-30
2022/11/16 01:38:52;;;;;;;6.00;4.10;;;;;;;;;;109169;1258;22514;-30
2022/11/16 01:41:27;;;;;;;7.00;4.30;;;;;;;;;;109204;1260;25260;-30
2022/11/16 01:44:03;;;;;;;6.40;3.90;;;;;;;;;;109233;1259;22602;-30
2022/11/16 01:46:37;;;;;;;6.70;4.40;;;;;;;;;;109239;1260;22871;-30
2022/11/16 01:49:13;;;;;;;6.90;4.30;;;;;;;;;;109165;1253;22492;-30
2022/11/16 01:51:53;;;;;;;6.40;4.10;;;;;;;;;;109187;1261;22561;-30
2022/11/16 01:54:27;;;;;;;6.10;3.80;;;;;;;;;;109240;1261;22538;-30
2022/11/16 01:57:05;;;;;;;6.70;4.20;;;;;;;;;;109240;1262;22573;-30
2022/11/16 01:59:38;;;;;;;5.90;4.10;;;;;;;;;;109199;1261;22661;-30
2022/11/16 02:02:10;;;;;;;6.60;4.40;;;;;;;;;;109257;1259;22546;-30
2022/11/16 02:04:43;;;;;;;6.70;4.10;;;;;;;;;;109228;1254;22546;-30
2022/11/16 02:07:23;;;;;;;6.10;3.70;;;;;;;;;;109279;1254;25398;-30
2022/11/16 02:10:15;;;;;;;6.40;4.00;;;;;;;;;;109238;1259;25403;-30
2022/11/16 02:13:04;;;;;;;6.30;4.10;;;;;;;;;;109205;1262;25371;-30
2022/11/16 02:15:45;;;;;;;6.60;4.00;;;;;;;;;;109219;1261;22665;-30
2022/11/16 02:18:30;;;;;;;5.90;4.00;;;;;;;;;;109194;1266;22677;-30
2022/11/16 02:21:13;;;;;;;6.60;4.30;;;;;;;;;;109204;1260;22504;-30
2022/11/16 02:24:14;;;;;;;6.80;4.10;;;;;;;;;;109277;1259;22589;-30
2022/11/16 02:27:12;;;;;;;6.20;3.90;;;;;;;;;;109189;1259;22656;-30
2022/11/16 02:29:47;;;;;;;6.40;3.80;;;;;;;;;;109179;1260;22564;-30
2022/11/16 02:32:27;;;;;;;5.40;3.50;;;;;;;;;;109165;1261;22535;-30
2022/11/16 02:35:03;;;;;;;6.30;4.10;;;;;;;;;;109160;1256;22693;-30
2022/11/16 02:37:43;;;;;;;6.50;4.30;;;;;;;;;;109195;1260;22589;-30
2022/11/16 02:40:21;;;;;;;6.20;3.90;;;;;;;;;;109130;1266;22521;-30
2022/11/16 02:42:58;;;;;;;5.80;3.90;;;;;;;;;;109212;1259;22571;-30
2022/11/16 02:45:35;;;;;;;6.30;3.90;;;;;;;;;;109164;1257;22496;-30
2022/11/16 02:48:15;;;;;;;6.60;3.90;;;;;;;;;;109194;1260;22669;-30
2022/11/16 02:50:51;;;;;;;6.30;3.90;;;;;;;;;;109187;1257;22545;-30
2022/11/16 02:53:26;;;;;;;5.60;3.60;;;;;;;;;;109172;1262;22554;-30
2022/11/16 02:55:58;;;;;;;5.40;3.40;;;;;;;;;;109228;1263;22687;-30
2022/11/16 02:58:31;;;;;;;6.10;3.90;;;;;;;;;;109197;1261;22601;-30
2022/11/16 03:01:11;;;;;;;5.80;3.70;;;;;;;;;;109141;1253;22489;-30
2022/11/16 03:03:48;;;;;;;5.80;3.70;;;;;;;;;;109245;1253;22497;-30
2022/11/16 03:06:26;;;;;;;6.30;3.90;;;;;;;;;;109202;1260;22569;-30
2022/11/16 03:09:04;;;;;;;5.70;3.70;;;;;;;;;;109210;1260;22558;-30
2022/11/16 03:14:33;;;;;;;5.90;3.60;;;;;;;;;;109118;1254;22724;-30
2022/11/16 03:17:10;;;;;;;6.50;3.60;;;;;;;;;;109128;1263;24246;-30
2022/11/16 03:19:52;;;;;;;6.40;3.70;;;;;;;;;;109197;1259;22584;-30
2022/11/16 03:22:30;;;;;;;5.90;3.80;;;;;;;;;;109156;1259;25280;-30
2022/11/16 03:25:04;;;;;;;5.90;3.70;;;;;;;;;;109181;1260;22593;-30
2022/11/16 03:27:44;;;;;;;6.00;3.70;;;;;;;;;;109201;1260;22596;-30
2022/11/16 03:30:20;;;;;;;6.00;3.80;;;;;;;;;;109229;1263;25222;-30
2022/11/16 03:33:02;;;;;;;7.00;3.90;;;;;;;;;;109001;1262;24321;-30
2022/11/16 03:35:41;;;;;;;6.00;3.90;;;;;;;;;;109099;1252;22543;-30
2022/11/16 03:38:16;;;;;;;6.10;4.00;;;;;;;;;;109105;1256;22546;-30
2022/11/16 03:40:50;;;;;;;5.80;3.70;;;;;;;;;;109106;1257;22571;-30
2022/11/16 03:43:24;;;;;;;6.00;3.80;;;;;;;;;;109220;1260;22517;-30
2022/11/16 03:45:56;;;;;;;6.20;4.10;;;;;;;;;;109256;1260;22508;-30
2022/11/16 03:48:36;;;;;;;6.20;3.90;;;;;;;;;;109236;1260;25254;-30
2022/11/16 03:51:11;;;;;;;6.10;3.40;;;;;;;;;;109180;1260;22683;-30
2022/11/16 03:53:43;;;;;;;6.00;3.70;;;;;;;;;;109209;1260;22584;-30
2022/11/16 03:56:15;;;;;;;5.90;4.10;;;;;;;;;;109213;1260;22584;-30
2022/11/16 03:58:48;;;;;;;5.60;3.30;;;;;;;;;;109159;1253;23153;-30
2022/11/16 04:01:20;;;;;;;6.80;4.30;;;;;;;;;;109207;1253;22532;-30
2022/11/16 04:03:53;;;;;;;5.70;3.90;;;;;;;;;;109258;1263;22542;-30
2022/11/16 04:29:39;;;;;;;6.60;3.80;;;;;;;;;;109307;1260;23074;-30
2022/11/16 04:37:52;;;;;;;7.00;4.00;;;;;;;;;;109285;1263;22520;-30
2022/11/16 04:40:28;;;;;;;5.80;3.80;;;;;;;;;;109281;1263;22619;-30
2022/11/16 04:43:03;;;;;;;6.20;4.00;;;;;;;;;;109304;1260;25392;-30
2022/11/16 04:48:25;;;;;;;7.10;3.90;;;;;;;;;;109340;1266;24221;-30
2022/11/16 04:50:57;;;;;;;5.90;3.90;;;;;;;;;;109334;1266;25260;-30
2022/11/16 04:53:31;;;;;;;7.30;4.00;;;;;;;;;;109260;1253;22836;-30
2022/11/16 04:56:03;;;;;;;6.90;4.10;;;;;;;;;;109269;1263;22728;-30
2022/11/16 04:58:36;;;;;;;7.90;4.40;;;;;;;;;;109248;1263;22580;-30
2022/11/16 05:01:10;;;;;;;7.50;4.00;;;;;;;;;;109224;1261;22862;-30
2022/11/16 05:03:42;;;;;;;7.20;3.80;;;;;;;;;;109209;1260;22544;-30
2022/11/16 05:06:14;;;;;;;6.90;4.10;;;;;;;;;;109289;1266;22654;-30
2022/11/16 05:08:46;;;;;;;6.60;4.30;;;;;;;;;;109143;1260;22564;-27
2022/11/16 05:11:19;;;;;;;8.00;4.20;;;;;;;;;;109056;1260;22538;-27
2022/11/16 05:13:51;;;;;;;6.40;4.00;;;;;;;;;;109001;1260;23912;-27
2022/11/16 05:16:24;;;;;;;6.40;4.10;;;;;;;;;;109035;1261;22543;-27
2022/11/16 05:21:45;;;;;;;7.20;4.30;;;;;;;;;;109022;1266;22507;-27
2022/11/16 05:24:35;;;;;;;6.90;4.00;;;;;;;;;;108995;1266;22477;-27
2022/11/16 05:27:10;;;;;;;6.80;4.10;;;;;;;;;;109066;1266;23687;-27
2022/11/16 05:29:44;;;;;;;7.20;4.30;;;;;;;;;;109096;1259;22566;-27
2022/11/16 05:32:17;;;;;;;7.10;4.10;;;;;;;;;;109094;1257;22564;-27
2022/11/16 05:34:48;;;;;;;;;;;;;;;;;;108925;1268;22519;-27
2022/11/16 05:37:25;;;;;;;7.00;4.00;;;;;;;;;;108945;1262;22637;-27
2022/11/16 05:40:00;;;;;;;7.70;4.50;;;;;;;;;;108916;1267;22520;-27
2022/11/16 05:42:32;;;;;;;7.70;4.50;;;;;;;;;;108920;1259;22506;-27
2022/11/16 05:45:06;;;;;;;6.70;4.10;;;;;;;;;;108998;1262;22550;-27
2022/11/16 05:47:39;;;;;;;7.30;4.50;;;;;;;;;;109085;1263;22591;-27
2022/11/16 05:50:17;;;;;;;8.00;4.50;;;;;;;;;;109013;1264;24795;-27
2022/11/16 05:52:49;;;;;;;6.70;4.30;;;;;;;;;;109093;1266;22534;-27
2022/11/16 05:55:21;;;;;;;7.40;4.20;;;;;;;;;;108985;1263;22540;-27
2022/11/16 05:57:54;;;;;;;6.90;4.30;;;;;;;;;;109028;1265;22582;-27
2022/11/16 06:01:20;;;;;;;7.70;4.30;;;;;;;;;;108796;1260;25357;-27
2022/11/16 06:03:55;;;;;;;8.30;4.20;;;;;;;;;;108864;1266;22605;-27
2022/11/16 06:06:28;;;;;;;;;;;;;;;;;;109034;1265;23803;-27
2022/11/16 06:09:00;;;;;;;7.10;4.50;;;;;;;;;;109019;1263;22518;-27
2022/11/16 06:11:32;;;;;;;7.20;4.60;;;;;;;;;;108993;1266;22486;-27
2022/11/16 06:14:05;;;;;;;8.50;4.80;;;;;;;;;;108995;1264;22653;-27
2022/11/16 06:16:37;;;;;;;8.40;5.20;;;;;;;;;;108927;1263;22497;-27
2022/11/16 06:19:09;;;;;;;8.10;4.60;;;;;;;;;;108970;1263;22506;-27
2022/11/16 06:21:41;;;;;;;7.70;5.10;;;;;;;;;;108953;1260;23888;-27
2022/11/16 06:24:16;;;;;;;8.20;5.20;;;;;;;;;;108957;1268;25266;-27
2022/11/16 06:26:48;;;;;;;8.40;4.80;;;;;;;;;;108870;1265;25404;-27
2022/11/16 06:29:21;;;;;;;8.40;4.70;;;;;;;;;;108884;1268;25443;-27
2022/11/16 06:31:53;;;;;;;8.20;4.40;;;;;;;;;;108895;1263;22598;-27
2022/11/16 06:34:25;;;;;;;6.70;4.30;;;;;;;;;;108868;1263;22575;-27
2022/11/16 06:36:58;;;;;;;7.10;4.50;;;;;;;;;;108979;1261;23825;-27
2022/11/16 06:39:30;;;;;;;7.30;4.40;;;;;;;;;;108997;1265;22512;-27
2022/11/16 06:42:02;;;;;;;8.00;4.80;;;;;;;;;;109015;1260;22494;-27
2022/11/16 06:44:35;;;;;;;7.20;4.50;;;;;;;;;;109019;1266;23889;-27
2022/11/16 06:47:07;;;;;;;7.30;4.40;;;;;;;;;;108961;1266;22579;-27
2022/11/16 06:49:40;;;;;;;6.70;4.30;;;;;;;;;;108940;1259;22717;-27
2022/11/16 06:52:12;;;;;;;7.70;4.80;;;;;;;;;;108956;1266;22542;-27
2022/11/16 06:54:45;;;;;;;7.40;4.80;;;;;;;;;;108949;1266;22487;-27
2022/11/16 06:57:17;;;;;;;8.30;5.10;;;;;;;;;;108977;1263;22507;-27
2022/11/16 06:59:49;;;;;;;6.80;4.50;;;;;;;;;;109034;1261;25439;-27
2022/11/16 07:02:22;;;;;;;7.00;4.30;;;;;;;;;;109011;1264;22534;-27
2022/11/16 07:04:57;;;;;;;7.20;4.60;;;;;;;;;;109007;1265;22576;-27
2022/11/16 07:07:30;;;;;;;6.40;4.10;;;;;;;;;;108924;1269;22519;-27
2022/11/16 07:10:02;;;;;;;7.50;4.80;;;;;;;;;;108943;1267;22618;-27
2022/11/16 07:12:34;;;;;;;6.90;4.50;;;;;;;;;;108937;1255;22545;-27
2022/11/16 07:15:09;;;;;;;6.70;4.40;;;;;;;;;;108935;1266;23699;-27
2022/11/16 07:17:42;;;;;;;6.80;4.30;;;;;;;;;;108989;1265;22566;-27
2022/11/16 07:20:15;;;;;;;7.70;5.00;;;;;;;;;;109069;1265;22524;-27
2022/11/16 07:22:48;;;;;;;6.80;4.70;;;;;;;;;;109020;1265;22503;-27
2022/11/16 07:25:21;;;;;;;7.20;4.40;;;;;;;;;;109026;1260;22527;-27
2022/11/16 07:27:53;;;;;;;7.20;4.20;;;;;;;;;;108935;1266;22555;-27
2022/11/16 07:30:28;;;;;;;7.10;4.50;;;;;;;;;;108933;1268;22548;-27
2022/11/16 07:33:03;;;;;;;7.60;5.00;;;;;;;;;;108968;1260;22558;-27
2022/11/16 07:35:36;;;;;;;7.40;4.70;;;;;;;;;;108931;1267;25283;-27
2022/11/16 07:38:08;;;;;;;6.90;4.70;;;;;;;;;;109017;1263;22505;-27
2022/11/16 07:40:40;;;;;;;7.40;5.20;;;;;;;;;;109059;1266;22533;-27
2022/11/16 07:43:12;;;;;;;6.80;4.70;;;;;;;;;;109189;1256;22691;-30
2022/11/16 07:45:45;;;;;;;8.10;4.90;;;;;;;;;;109215;1261;23009;-30
2022/11/16 07:48:17;;;;;;;8.70;4.90;;;;;;;;;;109028;1267;22555;-30
2022/11/16 07:50:49;;;;;;;8.10;4.70;;;;;;;;;;109044;1259;22714;-30
2022/11/16 07:53:21;;;;;;;8.00;5.10;;;;;;;;;;108959;1267;23904;-30
2022/11/16 07:55:56;;;;;;;8.00;5.10;;;;;;;;;;108952;1268;22570;-30
2022/11/16 07:58:32;;;;;;;7.30;4.60;;;;;;;;;;108956;1260;22705;-30
2022/11/16 08:01:10;;;;;;;7.80;5.10;;;;;;;;;;109005;1262;23832;-30
2022/11/16 08:03:45;;;;;;;9.40;5.20;;;;;;;;;;109001;1260;22576;-30
2022/11/16 08:06:23;;;;;;;8.90;5.20;;;;;;;;;;108958;1264;22532;-30
2022/11/16 08:08:55;;;;;;;8.50;5.50;;;;;;;;;;108862;1263;22614;-30
2022/11/16 08:11:27;;;;;;;9.80;5.10;;;;;;;;;;108908;1263;22493;-30
2022/11/16 08:14:00;;;;;;;9.30;5.30;;;;;;;;;;108859;1266;22559;-30
2022/11/16 08:16:33;;;;;;;9.40;5.30;;;;;;;;;;108895;1263;22543;-30
2022/11/16 08:19:09;;;;;;;9.50;5.00;;;;;;;;;;108947;1265;22751;-30
2022/11/16 08:21:41;;;;;;;11.90;5.90;;;;;;;;;;108980;1266;24438;-30
2022/11/16 08:24:17;;;;;;;10.70;5.50;;;;;;;;;;108925;1259;22492;-28
2022/11/16 08:26:49;;;;;;;9.90;5.50;;;;;;;;;;109014;1266;22492;-29
2022/11/16 08:29:21;;;;;;;9.10;4.80;;;;;;;;;;108906;1267;25271;-29
2022/11/16 08:31:54;;;;;;;10.20;5.10;;;;;;;;;;108877;1268;22530;-29
2022/11/16 08:34:26;;;;;;;9.70;5.30;;;;;;;;;;108903;1265;25335;-29
2022/11/16 08:37:00;;;;;;;9.70;5.20;;;;;;;;;;108945;1268;22557;-28
2022/11/16 08:39:34;;;;;;;11.30;5.40;;;;;;;;;;109004;1260;25390;-29
2022/11/16 08:42:05;;;;;;;;;;;;;;;;;;108874;1259;22530;-29
2022/11/16 08:44:37;;;;;;;9.90;4.70;;;;;;;;;;108998;1262;25380;-28
2022/11/16 08:47:10;;;;;;;10.20;5.10;;;;;;;;;;108977;1260;22566;-28
2022/11/16 08:49:42;;;;;;;8.80;4.80;;;;;;;;;;108909;1266;22595;-28
2022/11/16 08:52:14;;;;;;;8.00;4.50;;;;;;;;;;108653;1266;413272;-28
2022/11/16 08:54:46;;;;;;;7.70;4.50;;;;;;;;;;109001;1264;22721;-29
2022/11/16 08:57:18;;;;;;;9.90;4.90;;;;;;;;;;108912;1266;23092;-29
2022/11/16 08:59:50;;;;;;;8.10;4.50;;;;;;;;;;108950;1260;22504;-28
2022/11/16 09:02:24;;;;;;;9.60;4.80;;;;;;;;;;108996;1260;23895;-28
2022/11/16 09:04:59;;;;;;;7.90;4.90;;;;;;;;;;109023;1264;22576;-30
2022/11/16 09:07:31;;;;;;;8.60;4.50;;;;;;;;;;108965;1260;25159;-28
2022/11/16 09:10:04;;;;;;;9.40;4.60;;;;;;;;;;108841;1263;22555;-29
2022/11/16 09:12:38;;;;;;;9.50;5.10;;;;;;;;;;108900;1261;22545;-29
2022/11/16 09:15:14;;;;;;;7.60;4.50;;;;;;;;;;108954;1263;22625;-29
2022/11/16 09:17:47;;;;;;;7.50;4.30;;;;;;;;;;108927;1264;22559;-29
2022/11/16 09:20:20;;;;;;;7.70;4.80;;;;;;;;;;109013;1263;22649;-29
2022/11/16 09:22:53;;;;;;;8.30;4.50;;;;;;;;;;109067;1266;22542;-30
2022/11/16 09:25:26;;;;;;;7.60;4.30;;;;;;;;;;109038;1266;22600;-30
2022/11/16 09:27:58;;;;;;;8.30;4.30;;;;;;;;;;109069;1259;22504;-30
2022/11/16 09:30:31;;;;;;;7.30;4.00;;;;;;;;;;108913;1263;25325;-29
2022/11/16 09:33:03;;;;;;;7.40;3.90;;;;;;;;;;108999;1263;25378;-29
2022/11/16 09:35:38;;;;;;;7.20;3.70;;;;;;;;;;108983;1263;22752;-29
2022/11/16 09:38:12;;;;;;;6.80;4.10;;;;;;;;;;109013;1260;22595;-29
2022/11/16 09:40:48;;;;;;;6.70;4.00;;;;;;;;;;109044;1260;22656;-30
2022/11/16 09:43:36;;;;;;;7.20;3.70;;;;;;;;;;109016;1260;22563;-30
2022/11/16 09:46:25;;;;;;;6.50;3.70;;;;;;;;;;109063;1260;22586;-30
2022/11/16 09:49:00;;;;;;;6.70;3.80;;;;;;;;;;109010;1259;22532;-29
2022/11/16 09:51:35;;;;;;;7.70;4.00;;;;;;;;;;109050;1266;22583;-29
2022/11/16 09:54:11;;;;;;;7.30;3.70;;;;;;;;;;108887;1263;22523;-29
2022/11/16 09:56:46;;;;;;;6.10;3.60;;;;;;;;;;108993;1266;22547;-29
2022/11/16 09:59:25;;;;;;;6.20;3.70;;;;;;;;;;108909;1263;22691;-29
2022/11/16 10:02:03;;;;;;;6.10;3.40;;;;;;;;;;109051;1260;22592;-29
2022/11/16 10:04:45;;;;;;;6.80;3.80;;;;;;;;;;109060;1263;22557;-29
2022/11/16 10:07:23;;;;;;;6.00;3.80;;;;;;;;;;109029;1263;25422;-27
2022/11/16 10:09:57;;;;;;;7.10;3.50;;;;;;;;;;108981;1261;25693;-27
2022/11/16 10:12:36;;;;;;;5.60;3.30;;;;;;;;;;108941;1259;22494;-27
2022/11/16 10:15:31;;;;;;;6.00;3.30;;;;;;;;;;108902;1260;22551;-28
2022/11/16 10:18:20;;;;;;;6.40;3.50;;;;;;;;;;108937;1263;22547;-27
2022/11/16 10:21:12;;;;;;;6.50;3.60;;;;;;;;;;108977;1259;22573;-27
2022/11/16 10:24:06;;;;;;;5.60;3.30;;;;;;;;;;109024;1259;22542;-28
2022/11/16 10:26:54;;;;;;;6.00;3.30;;;;;;;;;;108975;1252;25482;-28
2022/11/16 10:29:46;;;;;;;7.20;3.60;;;;;;;;;;108990;1261;22595;-28
2022/11/16 10:32:27;;;;;;;7.20;3.50;;;;;;;;;;108933;1268;22543;-27
2022/11/16 10:35:09;;;;;;;7.30;3.40;;;;;;;;;;108954;1262;22514;-27
2022/11/16 10:37:50;;;;;;;6.00;3.20;;;;;;;;;;109006;1255;22517;-27
2022/11/16 10:40:28;;;;;;;6.40;3.40;;;;;;;;;;108928;1260;22563;-28
2022/11/16 10:43:14;;;;;;;6.50;3.40;;;;;;;;;;108983;1259;22563;-28
2022/11/16 10:45:56;;;;;;;6.90;3.30;;;;;;;;;;109040;1259;22551;-28
2022/11/16 10:48:43;;;;;;;5.70;3.10;;;;;;;;;;109044;1259;22596;-28
2022/11/16 10:51:15;;;;;;;5.50;3.10;;;;;;;;;;108953;1263;22584;-28
2022/11/16 10:53:48;;;;;;;5.60;3.00;;;;;;;;;;109000;1262;22633;-27
2022/11/16 10:56:22;;;;;;;;;;;;;;;;;;108923;1259;22518;-27
2022/11/16 10:59:02;;;;;;;4.90;2.70;;;;;;;;;;108937;1263;22574;-27
2022/11/16 11:01:38;;;;;;;6.00;3.10;;;;;;;;;;108990;1260;23116;-28
2022/11/16 11:04:23;;;;;;;6.00;3.00;;;;;;;;;;109006;1262;22799;-27
2022/11/16 11:06:57;;;;;;;5.80;2.90;;;;;;;;;;109015;1262;22541;-27
2022/11/16 11:09:35;;;;;;;6.70;2.70;;;;;;;;;;109029;1256;22544;-27
2022/11/16 11:15:23;;;;;;;5.20;2.70;;;;;;;;;;108975;1254;22613;-28
2022/11/16 11:18:26;;;;;;;5.80;2.80;;;;;;;;;;108947;1261;25228;-28
2022/11/16 11:21:13;;;;;;;;;;;;;;;;;;108933;1260;22526;-28
2022/11/16 11:23:50;;;;;;;6.00;3.10;;;;;;;;;;109008;1263;22678;-28
2022/11/16 11:26:42;;;;;;;6.00;3.10;;;;;;;;;;108988;1260;22590;-29
2022/11/16 11:29:27;;;;;;;5.30;2.40;;;;;;;;;;109008;1261;22550;-28
2022/11/16 11:32:08;;;;;;;5.40;2.70;;;;;;;;;;108993;1261;22517;-29
2022/11/16 11:34:50;;;;;;;6.30;2.60;;;;;;;;;;109145;1261;22598;-29
2022/11/16 11:37:33;;;;;;;5.40;2.60;;;;;;;;;;109242;1262;23861;-29
2022/11/16 11:40:24;;;;;;;5.10;2.50;;;;;;;;;;109295;1257;22519;-30
2022/11/16 11:43:05;;;;;;;5.10;2.50;;;;;;;;;;109110;1260;22553;-30
2022/11/16 11:45:45;;;;;;;6.10;2.60;;;;;;;;;;109174;1260;22571;-29
2022/11/16 11:48:34;;;;;;;5.70;2.40;;;;;;;;;;109130;1262;22541;-29
2022/11/16 11:51:17;;;;;;;4.80;2.10;;;;;;;;;;109155;1262;22609;-30
2022/11/16 11:54:00;;;;;;;4.70;2.20;;;;;;;;;;109159;1262;22570;-28
2022/11/16 11:56:46;;;;;;;4.60;2.50;;;;;;;;;;109181;1261;22602;-29
2022/11/16 11:59:24;;;;;;;6.10;2.30;;;;;;;;;;109096;1262;22602;-30
2022/11/16 12:02:24;;;;;;;4.80;2.30;;;;;;;;;;109017;1262;22981;-29
2022/11/16 12:05:35;;;;;;;6.60;2.50;;;;;;;;;;109168;1260;22543;-28
2022/11/16 12:08:27;;;;;;;5.00;2.30;;;;;;;;;;109171;1259;22617;-28
2022/11/16 12:11:08;;;;;;;5.30;2.20;;;;;;;;;;109155;1259;22638;-29
2022/11/16 12:14:06;;;;;;;4.50;2.30;;;;;;;;;;109022;1260;24039;-30
2022/11/16 12:16:49;;;;;;;5.60;2.40;;;;;;;;;;108933;1260;22569;-29
2022/11/16 12:19:45;;;;;;;4.80;2.40;;;;;;;;;;108823;1261;22547;-29
2022/11/16 12:22:46;;;;;;;4.80;2.30;;;;;;;;;;108820;1261;27491;-29
2022/11/16 12:25:29;;;;;;;5.80;2.50;;;;;;;;;;108851;1256;22632;-29
2022/11/16 12:28:20;;;;;;;4.70;2.10;;;;;;;;;;108899;1260;22555;-29
2022/11/16 12:31:22;;;;;;;5.20;2.00;;;;;;;;;;108789;1262;22547;-29
2022/11/16 12:34:05;;;;;;;4.90;2.00;;;;;;;;;;109024;1259;22727;-28
2022/11/16 12:36:50;;;;;;;6.10;2.20;;;;;;;;;;108918;1261;22557;-29
2022/11/16 12:39:30;;;;;;;4.50;2.00;;;;;;;;;;108805;1268;22623;-30
2022/11/16 12:42:33;;;;;;;5.20;1.90;;;;;;;;;;108823;1261;22494;-30
2022/11/16 12:45:35;;;;;;;4.60;1.90;;;;;;;;;;108882;1260;22487;-30
2022/11/16 12:48:35;;;;;;;4.40;1.60;;;;;;;;;;108866;1256;22566;-31
2022/11/16 12:51:20;;;;;;;5.30;1.80;;;;;;;;;;108872;1262;22544;-30
2022/11/16 12:54:32;;;;;;;4.80;1.80;;;;;;;;;;108854;1253;22540;-31
2022/11/16 12:57:14;;;;;;;4.10;1.80;;;;;;;;;;108849;1260;22596;-31
2022/11/16 13:00:08;;;;;;;4.80;2.00;;;;;;;;;;108926;1262;22573;-30
2022/11/16 13:03:10;;;;;;;4.40;1.50;;;;;;;;;;108840;1260;23035;-29
2022/11/16 13:05:55;;;;;;;4.20;1.90;;;;;;;;;;109057;1260;22943;-30
2022/11/16 13:08:51;;;;;;;4.50;1.50;;;;;;;;;;108971;1261;22583;-30
2022/11/16 13:11:31;;;;;;;4.60;1.60;;;;;;;;;;109004;1254;22805;-30
2022/11/16 13:14:11;;;;;;;5.80;1.70;;;;;;;;;;108947;1262;24061;-29
2022/11/16 13:16:44;;;;;;;7.10;1.60;;;;;;;;;;108946;1259;22491;-29
2022/11/16 13:19:18;;;;;;;5.10;1.70;;;;;;;;;;109024;1260;22554;-28
2022/11/16 13:22:05;;;;;;;4.80;1.60;;;;;;;;;;108884;1260;22533;-30
2022/11/16 13:24:49;;;;;;;4.20;1.50;;;;;;;;;;108921;1260;25386;-28
2022/11/16 13:27:34;;;;;;;3.90;1.70;;;;;;;;;;109011;1262;22554;-29
2022/11/16 13:30:20;;;;;;;5.30;1.70;;;;;;;;;;109024;1263;22518;-30
2022/11/16 13:33:11;;;;;;;4.50;1.70;;;;;;;;;;109025;1259;22549;-30
2022/11/16 13:35:46;;;;;;;5.70;1.70;;;;;;;;;;108873;1260;22574;-30
2022/11/16 13:38:56;;;;;;;6.40;2.00;;;;;;;;;;108974;1260;22556;-30
2022/11/16 13:41:35;;;;;;;6.40;2.00;;;;;;;;;;108908;1261;24385;-29
2022/11/16 13:44:23;;;;;;;5.80;1.90;;;;;;;;;;108885;1263;22703;-29
2022/11/16 13:47:03;;;;;;;6.20;2.00;;;;;;;;;;109016;1259;22552;-30
2022/11/16 13:49:40;;;;;;;5.00;1.90;;;;;;;;;;109016;1260;22633;-30
2022/11/16 13:52:14;;;;;;;4.90;1.70;;;;;;;;;;109035;1259;23828;-29
2022/11/16 13:54:48;;;;;;;4.30;1.50;;;;;;;;;;108969;1259;22563;-30
2022/11/16 13:57:31;;;;;;;4.50;1.60;;;;;;;;;;108954;1261;22569;-30
2022/11/16 14:00:24;;;;;;;6.70;1.50;;;;;;;;;;108947;1261;22538;-30
2022/11/16 14:03:37;;;;;;;5.60;1.70;;;;;;;;;;109024;1261;22562;-29
2022/11/16 14:06:55;;;;;;;5.50;1.50;;;;;;;;;;108930;1261;22536;-29
2022/11/16 14:09:47;;;;;;;7.10;1.90;;;;;;;;;;109063;1262;22540;-30
2022/11/16 14:12:54;;;;;;;4.60;1.90;;;;;;;;;;109019;1259;22541;-29
2022/11/16 14:15:40;;;;;;;5.60;2.00;;;;;;;;;;108985;1262;22568;-29
2022/11/16 14:18:36;;;;;;;5.40;1.60;;;;;;;;;;108955;1260;24037;-30
2022/11/16 14:21:30;;;;;;;6.00;2.20;;;;;;;;;;108856;1262;23796;-29
2022/11/16 14:24:21;;;;;;;6.40;2.30;;;;;;;;;;108960;1260;25222;-29
2022/11/16 14:27:07;;;;;;;6.90;2.00;;;;;;;;;;108977;1262;22489;-29
2022/11/16 14:29:59;;;;;;;6.00;2.00;;;;;;;;;;109055;1260;22544;-29
2022/11/16 14:32:36;;;;;;;6.00;2.30;;;;;;;;;;108978;1260;22545;-30
2022/11/16 14:35:32;;;;;;;6.00;1.90;;;;;;;;;;109058;1259;24199;-30
2022/11/16 14:38:07;;;;;;;5.90;2.20;;;;;;;;;;109015;1262;22609;-30
2022/11/16 14:40:48;;;;;;;8.80;2.10;;;;;;;;;;108920;1262;25107;-29
2022/11/16 14:43:28;;;;;;;5.40;1.90;;;;;;;;;;108862;1262;22491;-28
2022/11/16 14:46:05;;;;;;;4.80;1.80;;;;;;;;;;108855;1262;25391;-28
2022/11/16 14:48:49;;;;;;;5.80;2.00;;;;;;;;;;108970;1260;25373;-29
2022/11/16 14:51:27;;;;;;;5.90;1.90;;;;;;;;;;109009;1262;22606;-29
2022/11/16 14:54:03;;;;;;;4.80;1.80;;;;;;;;;;109023;1263;22544;-29
2022/11/16 14:56:37;;;;;;;4.50;1.70;;;;;;;;;;108971;1253;22486;-29
2022/11/16 14:59:18;;;;;;;5.50;1.80;;;;;;;;;;108936;1259;22554;-29
2022/11/16 15:01:51;;;;;;;4.50;1.50;;;;;;;;;;109003;1262;22474;-29
2022/11/16 15:04:28;;;;;;;4.80;1.70;;;;;;;;;;108939;1253;22546;-29
2022/11/16 15:07:03;;;;;;;3.80;1.50;;;;;;;;;;108896;1262;22530;-29
2022/11/16 15:09:38;;;;;;;4.60;1.70;;;;;;;;;;109015;1253;22550;-29
2022/11/16 15:15:18;;;;;;;4.20;1.50;;;;;;;;;;109084;1260;22609;-29
2022/11/16 15:18:07;;;;;;;4.00;1.60;;;;;;;;;;108969;1253;22730;-30
2022/11/16 15:20:49;;;;;;;5.10;1.80;;;;;;;;;;108974;1262;22495;-29
2022/11/16 15:23:22;;;;;;;4.50;1.60;;;;;;;;;;108945;1262;22624;-28
2022/11/16 15:25:55;;;;;;;;;;;;;;;;;;108995;1262;22517;-28
2022/11/16 15:28:30;;;;;;;5.20;1.80;;;;;;;;;;108951;1260;22561;-28
2022/11/16 15:31:07;;;;;;;5.00;1.80;;;;;;;;;;109029;1259;22549;-28
2022/11/16 15:33:43;;;;;;;4.40;1.70;;;;;;;;;;109060;1259;22533;-29
2022/11/16 15:36:39;;;;;;;4.90;1.60;;;;;;;;;;109000;1262;22593;-28
2022/11/16 15:39:16;;;;;;;3.20;1.30;;;;;;;;;;108936;1253;22574;-28
2022/11/16 15:41:48;;;;;;;3.80;1.50;;;;;;;;;;109053;1262;22726;-28
2022/11/16 15:44:23;;;;;;;3.30;1.40;;;;;;;;;;108961;1259;22498;-28
2022/11/16 15:46:57;;;;;;;4.00;1.50;;;;;;;;;;109005;1260;22956;-26
2022/11/16 15:49:33;;;;;;;4.50;1.50;;;;;;;;;;109001;1259;22597;-27
2022/11/16 15:52:06;;;;;;;4.00;1.80;;;;;;;;;;109006;1259;22488;-27
2022/11/16 15:57:25;;;;;;;5.70;1.70;;;;;;;;;;109084;1259;22598;-27
2022/11/16 15:59:58;;;;;;;4.00;1.40;;;;;;;;;;109011;1263;22555;-27
2022/11/16 16:02:33;;;;;;;4.10;1.30;;;;;;;;;;109010;1262;24241;-29
2022/11/16 16:05:23;;;;;;;3.70;1.70;;;;;;;;;;109040;1262;22586;-28
2022/11/16 16:07:58;;;;;;;3.80;1.50;;;;;;;;;;108910;1261;22546;-26
2022/11/16 16:10:30;;;;;;;4.10;1.60;;;;;;;;;;108962;1259;22530;-26
2022/11/16 16:13:17;;;;;;;4.60;1.70;;;;;;;;;;109019;1259;22518;-26
2022/11/16 16:15:50;;;;;;;3.60;1.50;;;;;;;;;;109018;1260;23923;-28
2022/11/16 16:18:39;;;;;;;4.70;1.70;;;;;;;;;;109011;1260;22545;-29
2022/11/16 16:21:15;;;;;;;4.00;1.50;;;;;;;;;;108939;1262;23788;-29
2022/11/16 16:23:49;;;;;;;4.10;1.60;;;;;;;;;;108974;1263;23726;-28